sensor_id;sensor_type;location;lat;lon;timestamp;P1;durP1;ratioP1;P2;durP2;ratioP2
72479;SDS011;60503;43.540;-5.510;2022-09-03T00:00:26;7.05;;;1.80;;
72479;SDS011;60503;43.540;-5.510;2022-09-03T00:02:59;13.32;;;2.25;;
72479;SDS011;60503;43.540;-5.510;2022-09-03T00:05:55;9.93;;;1.80;;
72479;SDS011;60503;43.540;-5.510;2022-09-03T00:11:27;15.18;;;2.47;;
72479;SDS011;60503;43.540;-5.510;2022-09-03T00:14:12;8.57;;;2.38;;
72479;SDS011;60503;43.540;-5.510;2022-09-03T00:19:33;5.65;;;1.98;;
72479;SDS011;60503;43.540;-5.510;2022-09-03T00:22:16;11.48;;;1.98;;
72479;SDS011;60503;43.540;-5.510;2022-09-03T00:24:43;13.02;;;2.30;;
72479;SDS011;60503;43.540;-5.510;2022-09-03T00:27:31;7.65;;;1.80;;
72479;SDS011;60503;43.540;-5.510;2022-09-03T00:29:58;7.47;;;1.85;;
72479;SDS011;60503;43.540;-5.510;2022-09-03T00:37:35;11.70;;;2.20;;
72479;SDS011;60503;43.540;-5.510;2022-09-03T00:40:00;11.25;;;2.05;;
72479;SDS011;60503;43.540;-5.510;2022-09-03T00:45:14;9.75;;;2.25;;
72479;SDS011;60503;43.540;-5.510;2022-09-03T00:48:52;7.60;;;2.33;;
72479;SDS011;60503;43.540;-5.510;2022-09-03T00:53:32;13.38;;;2.08;;
72479;SDS011;60503;43.540;-5.510;2022-09-03T01:09:55;7.30;;;1.88;;
72479;SDS011;60503;43.540;-5.510;2022-09-03T01:15:40;12.70;;;2.05;;
72479;SDS011;60503;43.540;-5.510;2022-09-03T01:23:47;15.40;;;1.95;;
72479;SDS011;60503;43.540;-5.510;2022-09-03T01:29:09;9.00;;;1.65;;
72479;SDS011;60503;43.540;-5.510;2022-09-03T01:34:56;10.57;;;2.10;;
72479;SDS011;60503;43.540;-5.510;2022-09-03T01:37:37;11.63;;;2.30;;
72479;SDS011;60503;43.540;-5.510;2022-09-03T01:40:26;7.80;;;1.85;;
72479;SDS011;60503;43.540;-5.510;2022-09-03T01:46:00;11.20;;;2.10;;
72479;SDS011;60503;43.540;-5.510;2022-09-03T01:48:36;10.45;;;2.15;;
72479;SDS011;60503;43.540;-5.510;2022-09-03T01:51:40;11.93;;;2.33;;
72479;SDS011;60503;43.540;-5.510;2022-09-03T01:57:14;9.82;;;1.95;;
72479;SDS011;60503;43.540;-5.510;2022-09-03T02:02:44;5.82;;;1.98;;
72479;SDS011;60503;43.540;-5.510;2022-09-03T02:05:17;10.52;;;2.28;;
72479;SDS011;60503;43.540;-5.510;2022-09-03T02:08:04;9.52;;;1.90;;
72479;SDS011;60503;43.540;-5.510;2022-09-03T02:13:13;7.75;;;2.13;;
72479;SDS011;60503;43.540;-5.510;2022-09-03T02:15:44;16.23;;;2.83;;
72479;SDS011;60503;43.540;-5.510;2022-09-03T02:18:13;16.25;;;2.28;;
72479;SDS011;60503;43.540;-5.510;2022-09-03T02:20:41;11.57;;;1.90;;
72479;SDS011;60503;43.540;-5.510;2022-09-03T02:23:07;4.40;;;1.70;;
72479;SDS011;60503;43.540;-5.510;2022-09-03T02:25:35;7.97;;;2.20;;
72479;SDS011;60503;43.540;-5.510;2022-09-03T02:28:05;14.07;;;2.22;;
72479;SDS011;60503;43.540;-5.510;2022-09-03T02:30:32;10.13;;;2.03;;
72479;SDS011;60503;43.540;-5.510;2022-09-03T02:32:58;5.88;;;1.90;;
72479;SDS011;60503;43.540;-5.510;2022-09-03T02:35:24;7.85;;;2.10;;
72479;SDS011;60503;43.540;-5.510;2022-09-03T02:37:49;9.32;;;2.55;;
72479;SDS011;60503;43.540;-5.510;2022-09-03T02:40:15;7.63;;;2.20;;
72479;SDS011;60503;43.540;-5.510;2022-09-03T02:42:41;10.75;;;2.05;;
72479;SDS011;60503;43.540;-5.510;2022-09-03T02:47:49;6.32;;;1.80;;
72479;SDS011;60503;43.540;-5.510;2022-09-03T02:50:16;9.90;;;2.00;;
72479;SDS011;60503;43.540;-5.510;2022-09-03T02:52:42;5.20;;;1.95;;
72479;SDS011;60503;43.540;-5.510;2022-09-03T02:55:08;8.75;;;2.20;;
72479;SDS011;60503;43.540;-5.510;2022-09-03T02:57:33;6.60;;;2.10;;
72479;SDS011;60503;43.540;-5.510;2022-09-03T02:59:59;9.15;;;2.00;;
72479;SDS011;60503;43.540;-5.510;2022-09-03T03:02:24;9.00;;;2.13;;
72479;SDS011;60503;43.540;-5.510;2022-09-03T03:04:50;5.30;;;1.98;;
72479;SDS011;60503;43.540;-5.510;2022-09-03T03:07:16;7.80;;;2.15;;
72479;SDS011;60503;43.540;-5.510;2022-09-03T03:09:41;7.60;;;1.80;;
72479;SDS011;60503;43.540;-5.510;2022-09-03T03:12:07;6.05;;;1.90;;
72479;SDS011;60503;43.540;-5.510;2022-09-03T03:14:34;11.88;;;1.92;;
72479;SDS011;60503;43.540;-5.510;2022-09-03T03:16:59;10.77;;;1.90;;
72479;SDS011;60503;43.540;-5.510;2022-09-03T03:19:25;8.57;;;1.92;;
72479;SDS011;60503;43.540;-5.510;2022-09-03T03:21:50;7.70;;;1.90;;
72479;SDS011;60503;43.540;-5.510;2022-09-03T03:24:16;6.65;;;2.08;;
72479;SDS011;60503;43.540;-5.510;2022-09-03T03:26:42;6.88;;;2.05;;
72479;SDS011;60503;43.540;-5.510;2022-09-03T03:29:07;6.85;;;1.88;;
72479;SDS011;60503;43.540;-5.510;2022-09-03T03:31:39;9.45;;;1.98;;
72479;SDS011;60503;43.540;-5.510;2022-09-03T03:34:04;8.00;;;2.20;;
72479;SDS011;60503;43.540;-5.510;2022-09-03T03:36:31;4.15;;;1.80;;
72479;SDS011;60503;43.540;-5.510;2022-09-03T03:38:57;5.57;;;1.80;;
72479;SDS011;60503;43.540;-5.510;2022-09-03T03:41:24;4.38;;;1.80;;
72479;SDS011;60503;43.540;-5.510;2022-09-03T03:43:56;9.68;;;2.30;;
72479;SDS011;60503;43.540;-5.510;2022-09-03T03:46:23;9.80;;;2.10;;
72479;SDS011;60503;43.540;-5.510;2022-09-03T03:48:50;15.15;;;2.38;;
72479;SDS011;60503;43.540;-5.510;2022-09-03T03:51:16;10.85;;;2.60;;
72479;SDS011;60503;43.540;-5.510;2022-09-03T03:53:42;7.05;;;2.00;;
72479;SDS011;60503;43.540;-5.510;2022-09-03T03:56:09;5.40;;;1.90;;
72479;SDS011;60503;43.540;-5.510;2022-09-03T03:58:36;6.45;;;1.90;;
72479;SDS011;60503;43.540;-5.510;2022-09-03T04:01:13;8.30;;;1.95;;
72479;SDS011;60503;43.540;-5.510;2022-09-03T04:03:40;11.13;;;2.08;;
72479;SDS011;60503;43.540;-5.510;2022-09-03T04:06:06;6.68;;;1.90;;
72479;SDS011;60503;43.540;-5.510;2022-09-03T04:08:33;10.48;;;2.17;;
72479;SDS011;60503;43.540;-5.510;2022-09-03T04:11:00;8.52;;;2.17;;
72479;SDS011;60503;43.540;-5.510;2022-09-03T04:13:28;11.98;;;2.42;;
72479;SDS011;60503;43.540;-5.510;2022-09-03T04:18:27;8.55;;;1.90;;
72479;SDS011;60503;43.540;-5.510;2022-09-03T04:24:15;9.23;;;1.85;;
72479;SDS011;60503;43.540;-5.510;2022-09-03T04:26:41;6.60;;;2.08;;
72479;SDS011;60503;43.540;-5.510;2022-09-03T04:29:08;7.00;;;2.05;;
72479;SDS011;60503;43.540;-5.510;2022-09-03T04:31:34;7.45;;;2.03;;
72479;SDS011;60503;43.540;-5.510;2022-09-03T04:34:01;6.25;;;1.80;;
72479;SDS011;60503;43.540;-5.510;2022-09-03T04:36:27;6.70;;;1.70;;
72479;SDS011;60503;43.540;-5.510;2022-09-03T04:38:54;5.38;;;1.80;;
72479;SDS011;60503;43.540;-5.510;2022-09-03T04:41:23;8.50;;;1.85;;
72479;SDS011;60503;43.540;-5.510;2022-09-03T04:43:53;8.82;;;2.30;;
72479;SDS011;60503;43.540;-5.510;2022-09-03T04:46:20;8.88;;;1.98;;
72479;SDS011;60503;43.540;-5.510;2022-09-03T04:48:48;10.40;;;2.33;;
72479;SDS011;60503;43.540;-5.510;2022-09-03T04:51:16;11.63;;;2.13;;
72479;SDS011;60503;43.540;-5.510;2022-09-03T04:53:52;5.75;;;1.95;;
72479;SDS011;60503;43.540;-5.510;2022-09-03T04:56:21;8.30;;;2.25;;
72479;SDS011;60503;43.540;-5.510;2022-09-03T04:58:58;7.35;;;1.90;;
72479;SDS011;60503;43.540;-5.510;2022-09-03T05:01:26;7.45;;;2.28;;
72479;SDS011;60503;43.540;-5.510;2022-09-03T05:03:57;9.15;;;2.10;;
72479;SDS011;60503;43.540;-5.510;2022-09-03T05:06:23;13.37;;;2.10;;
72479;SDS011;60503;43.540;-5.510;2022-09-03T05:08:50;9.30;;;2.10;;
72479;SDS011;60503;43.540;-5.510;2022-09-03T05:11:17;8.65;;;2.17;;
72479;SDS011;60503;43.540;-5.510;2022-09-03T05:13:45;9.15;;;1.90;;
72479;SDS011;60503;43.540;-5.510;2022-09-03T05:16:14;6.50;;;1.73;;
72479;SDS011;60503;43.540;-5.510;2022-09-03T05:18:40;7.68;;;2.33;;
72479;SDS011;60503;43.540;-5.510;2022-09-03T05:21:07;12.10;;;2.75;;
72479;SDS011;60503;43.540;-5.510;2022-09-03T05:23:34;8.00;;;1.95;;
72479;SDS011;60503;43.540;-5.510;2022-09-03T05:26:03;6.35;;;2.05;;
72479;SDS011;60503;43.540;-5.510;2022-09-03T05:28:33;11.93;;;2.30;;
72479;SDS011;60503;43.540;-5.510;2022-09-03T05:31:10;8.80;;;2.03;;
72479;SDS011;60503;43.540;-5.510;2022-09-03T05:33:44;9.18;;;2.17;;
72479;SDS011;60503;43.540;-5.510;2022-09-03T05:36:12;6.20;;;2.00;;
72479;SDS011;60503;43.540;-5.510;2022-09-03T05:38:47;11.85;;;2.60;;
72479;SDS011;60503;43.540;-5.510;2022-09-03T05:41:14;9.25;;;2.17;;
72479;SDS011;60503;43.540;-5.510;2022-09-03T05:43:41;6.25;;;1.98;;
72479;SDS011;60503;43.540;-5.510;2022-09-03T05:46:08;8.80;;;2.10;;
72479;SDS011;60503;43.540;-5.510;2022-09-03T05:48:38;12.25;;;2.33;;
72479;SDS011;60503;43.540;-5.510;2022-09-03T05:51:05;6.07;;;2.13;;
72479;SDS011;60503;43.540;-5.510;2022-09-03T05:53:33;5.93;;;2.08;;
72479;SDS011;60503;43.540;-5.510;2022-09-03T05:56:00;9.75;;;2.63;;
72479;SDS011;60503;43.540;-5.510;2022-09-03T05:58:31;10.20;;;2.40;;
72479;SDS011;60503;43.540;-5.510;2022-09-03T06:01:13;7.55;;;2.03;;
72479;SDS011;60503;43.540;-5.510;2022-09-03T06:03:40;8.95;;;2.10;;
72479;SDS011;60503;43.540;-5.510;2022-09-03T06:06:07;7.40;;;2.28;;
72479;SDS011;60503;43.540;-5.510;2022-09-03T06:08:33;7.95;;;2.15;;
72479;SDS011;60503;43.540;-5.510;2022-09-03T06:11:00;8.90;;;2.17;;
72479;SDS011;60503;43.540;-5.510;2022-09-03T06:13:28;13.57;;;2.42;;
72479;SDS011;60503;43.540;-5.510;2022-09-03T06:15:57;8.35;;;2.00;;
72479;SDS011;60503;43.540;-5.510;2022-09-03T06:18:24;7.57;;;2.30;;
72479;SDS011;60503;43.540;-5.510;2022-09-03T06:20:54;8.02;;;2.00;;
72479;SDS011;60503;43.540;-5.510;2022-09-03T06:23:21;8.25;;;2.20;;
72479;SDS011;60503;43.540;-5.510;2022-09-03T06:25:47;11.45;;;2.30;;
72479;SDS011;60503;43.540;-5.510;2022-09-03T06:28:23;6.05;;;2.17;;
72479;SDS011;60503;43.540;-5.510;2022-09-03T06:30:51;5.88;;;2.00;;
72479;SDS011;60503;43.540;-5.510;2022-09-03T06:33:17;6.65;;;2.30;;
72479;SDS011;60503;43.540;-5.510;2022-09-03T06:35:42;9.25;;;1.92;;
72479;SDS011;60503;43.540;-5.510;2022-09-03T06:38:08;10.55;;;2.30;;
72479;SDS011;60503;43.540;-5.510;2022-09-03T06:40:37;14.68;;;3.42;;
72479;SDS011;60503;43.540;-5.510;2022-09-03T06:43:02;13.30;;;2.53;;
72479;SDS011;60503;43.540;-5.510;2022-09-03T06:45:31;9.15;;;1.90;;
72479;SDS011;60503;43.540;-5.510;2022-09-03T06:47:56;5.18;;;1.83;;
72479;SDS011;60503;43.540;-5.510;2022-09-03T06:50:22;5.13;;;2.10;;
72479;SDS011;60503;43.540;-5.510;2022-09-03T06:52:51;7.75;;;1.67;;
72479;SDS011;60503;43.540;-5.510;2022-09-03T06:55:20;6.50;;;2.05;;
72479;SDS011;60503;43.540;-5.510;2022-09-03T06:57:47;5.53;;;1.90;;
72479;SDS011;60503;43.540;-5.510;2022-09-03T07:00:13;10.35;;;2.25;;
72479;SDS011;60503;43.540;-5.510;2022-09-03T07:02:39;5.65;;;1.92;;
72479;SDS011;60503;43.540;-5.510;2022-09-03T07:05:06;7.30;;;1.70;;
72479;SDS011;60503;43.540;-5.510;2022-09-03T07:07:32;5.75;;;1.98;;
72479;SDS011;60503;43.540;-5.510;2022-09-03T07:09:58;6.95;;;2.15;;
72479;SDS011;60503;43.540;-5.510;2022-09-03T07:12:23;6.68;;;1.92;;
72479;SDS011;60503;43.540;-5.510;2022-09-03T07:14:49;6.32;;;2.10;;
72479;SDS011;60503;43.540;-5.510;2022-09-03T07:17:38;8.75;;;2.10;;
72479;SDS011;60503;43.540;-5.510;2022-09-03T07:23:55;7.30;;;2.47;;
72479;SDS011;60503;43.540;-5.510;2022-09-03T07:26:22;7.78;;;2.40;;
72479;SDS011;60503;43.540;-5.510;2022-09-03T07:28:50;6.70;;;2.10;;
72479;SDS011;60503;43.540;-5.510;2022-09-03T07:31:19;6.30;;;1.80;;
72479;SDS011;60503;43.540;-5.510;2022-09-03T07:33:56;5.43;;;2.08;;
72479;SDS011;60503;43.540;-5.510;2022-09-03T07:36:23;7.20;;;1.85;;
72479;SDS011;60503;43.540;-5.510;2022-09-03T07:38:50;7.22;;;2.15;;
72479;SDS011;60503;43.540;-5.510;2022-09-03T07:41:16;6.95;;;2.05;;
72479;SDS011;60503;43.540;-5.510;2022-09-03T07:43:45;4.60;;;1.85;;
72479;SDS011;60503;43.540;-5.510;2022-09-03T07:46:18;6.72;;;2.10;;
72479;SDS011;60503;43.540;-5.510;2022-09-03T07:48:57;4.13;;;1.88;;
72479;SDS011;60503;43.540;-5.510;2022-09-03T07:51:25;6.82;;;1.95;;
72479;SDS011;60503;43.540;-5.510;2022-09-03T07:53:56;8.68;;;1.85;;
72479;SDS011;60503;43.540;-5.510;2022-09-03T07:56:22;3.20;;;1.77;;
72479;SDS011;60503;43.540;-5.510;2022-09-03T07:58:48;9.77;;;2.00;;
72479;SDS011;60503;43.540;-5.510;2022-09-03T08:01:15;10.25;;;2.20;;
72479;SDS011;60503;43.540;-5.510;2022-09-03T08:07:04;5.88;;;2.00;;
72479;SDS011;60503;43.540;-5.510;2022-09-03T08:09:29;4.82;;;1.85;;
72479;SDS011;60503;43.540;-5.510;2022-09-03T08:11:57;5.63;;;2.15;;
72479;SDS011;60503;43.540;-5.510;2022-09-03T08:14:22;7.18;;;2.55;;
72479;SDS011;60503;43.540;-5.510;2022-09-03T08:16:48;6.55;;;2.00;;
72479;SDS011;60503;43.540;-5.510;2022-09-03T08:19:14;9.85;;;2.40;;
72479;SDS011;60503;43.540;-5.510;2022-09-03T08:28:25;5.95;;;1.83;;
72479;SDS011;60503;43.540;-5.510;2022-09-03T08:37:35;10.45;;;2.55;;
72479;SDS011;60503;43.540;-5.510;2022-09-03T08:40:00;10.15;;;3.22;;
72479;SDS011;60503;43.540;-5.510;2022-09-03T08:42:35;9.18;;;3.20;;
72479;SDS011;60503;43.540;-5.510;2022-09-03T08:45:05;11.73;;;3.30;;
72479;SDS011;60503;43.540;-5.510;2022-09-03T08:50:53;11.00;;;2.72;;
72479;SDS011;60503;43.540;-5.510;2022-09-03T08:55:57;13.65;;;3.90;;
72479;SDS011;60503;43.540;-5.510;2022-09-03T08:58:27;12.40;;;4.72;;
72479;SDS011;60503;43.540;-5.510;2022-09-03T09:03:36;13.23;;;4.65;;
72479;SDS011;60503;43.540;-5.510;2022-09-03T09:23:27;9.18;;;2.35;;
72479;SDS011;60503;43.540;-5.510;2022-09-03T09:25:55;4.88;;;2.28;;
72479;SDS011;60503;43.540;-5.510;2022-09-03T09:28:24;10.50;;;2.50;;
72479;SDS011;60503;43.540;-5.510;2022-09-03T09:30:54;10.15;;;2.72;;
72479;SDS011;60503;43.540;-5.510;2022-09-03T09:33:21;6.70;;;2.47;;
72479;SDS011;60503;43.540;-5.510;2022-09-03T09:35:47;10.85;;;2.17;;
72479;SDS011;60503;43.540;-5.510;2022-09-03T09:38:13;8.07;;;2.47;;
72479;SDS011;60503;43.540;-5.510;2022-09-03T09:40:40;8.30;;;2.50;;
72479;SDS011;60503;43.540;-5.510;2022-09-03T09:43:12;8.25;;;2.33;;
72479;SDS011;60503;43.540;-5.510;2022-09-03T09:45:41;12.88;;;3.33;;
72479;SDS011;60503;43.540;-5.510;2022-09-03T09:49:21;12.88;;;3.53;;
72479;SDS011;60503;43.540;-5.510;2022-09-03T09:51:16;12.43;;;3.60;;
72479;SDS011;60503;43.540;-5.510;2022-09-03T09:53:46;11.73;;;3.33;;
72479;SDS011;60503;43.540;-5.510;2022-09-03T09:56:19;7.80;;;3.08;;
72479;SDS011;60503;43.540;-5.510;2022-09-03T09:58:46;15.02;;;3.60;;
72479;SDS011;60503;43.540;-5.510;2022-09-03T10:01:22;8.18;;;2.90;;
72479;SDS011;60503;43.540;-5.510;2022-09-03T10:09:40;11.23;;;3.85;;
72479;SDS011;60503;43.540;-5.510;2022-09-03T10:12:07;11.18;;;3.88;;
72479;SDS011;60503;43.540;-5.510;2022-09-03T10:26:39;8.82;;;2.15;;
72479;SDS011;60503;43.540;-5.510;2022-09-03T10:29:05;9.73;;;1.80;;
72479;SDS011;60503;43.540;-5.510;2022-09-03T10:31:38;9.02;;;2.17;;
72479;SDS011;60503;43.540;-5.510;2022-09-03T10:34:18;8.90;;;1.90;;
72479;SDS011;60503;43.540;-5.510;2022-09-03T10:53:33;7.78;;;1.85;;
72479;SDS011;60503;43.540;-5.510;2022-09-03T10:58:42;11.10;;;2.05;;
72479;SDS011;60503;43.540;-5.510;2022-09-03T11:07:05;5.25;;;1.83;;
72479;SDS011;60503;43.540;-5.510;2022-09-03T11:09:37;5.68;;;1.52;;
72479;SDS011;60503;43.540;-5.510;2022-09-03T11:15:12;6.15;;;1.80;;
72479;SDS011;60503;43.540;-5.510;2022-09-03T11:17:54;7.18;;;1.70;;
72479;SDS011;60503;43.540;-5.510;2022-09-03T11:20:25;7.03;;;1.83;;
72479;SDS011;60503;43.540;-5.510;2022-09-03T11:26:13;6.88;;;1.52;;
72479;SDS011;60503;43.540;-5.510;2022-09-03T11:28:53;5.43;;;1.60;;
72479;SDS011;60503;43.540;-5.510;2022-09-03T11:34:13;6.90;;;1.70;;
72479;SDS011;60503;43.540;-5.510;2022-09-03T11:36:40;3.33;;;1.30;;
72479;SDS011;60503;43.540;-5.510;2022-09-03T11:39:19;24.40;;;6.80;;
72479;SDS011;60503;43.540;-5.510;2022-09-03T11:41:58;8.80;;;1.65;;
72479;SDS011;60503;43.540;-5.510;2022-09-03T11:44:34;3.92;;;1.30;;
72479;SDS011;60503;43.540;-5.510;2022-09-03T11:47:20;5.80;;;1.27;;
72479;SDS011;60503;43.540;-5.510;2022-09-03T11:52:24;5.60;;;1.38;;
72479;SDS011;60503;43.540;-5.510;2022-09-03T11:54:53;6.03;;;1.60;;
72479;SDS011;60503;43.540;-5.510;2022-09-03T11:57:22;10.50;;;1.80;;
72479;SDS011;60503;43.540;-5.510;2022-09-03T11:59:50;5.78;;;1.45;;
72479;SDS011;60503;43.540;-5.510;2022-09-03T12:18:15;4.47;;;1.40;;
72479;SDS011;60503;43.540;-5.510;2022-09-03T12:20:47;5.47;;;1.45;;
72479;SDS011;60503;43.540;-5.510;2022-09-03T12:23:29;9.02;;;1.60;;
72479;SDS011;60503;43.540;-5.510;2022-09-03T12:26:06;2.53;;;1.25;;
72479;SDS011;60503;43.540;-5.510;2022-09-03T12:28:34;8.68;;;1.33;;
72479;SDS011;60503;43.540;-5.510;2022-09-03T12:31:05;4.93;;;1.17;;
72479;SDS011;60503;43.540;-5.510;2022-09-03T12:33:32;5.32;;;1.30;;
72479;SDS011;60503;43.540;-5.510;2022-09-03T12:35:58;6.90;;;1.30;;
72479;SDS011;60503;43.540;-5.510;2022-09-03T12:38:25;2.08;;;0.90;;
72479;SDS011;60503;43.540;-5.510;2022-09-03T12:40:53;4.30;;;1.30;;
72479;SDS011;60503;43.540;-5.510;2022-09-03T12:43:19;3.58;;;1.10;;
72479;SDS011;60503;43.540;-5.510;2022-09-03T12:45:48;4.18;;;1.42;;
72479;SDS011;60503;43.540;-5.510;2022-09-03T12:48:18;8.30;;;1.55;;
72479;SDS011;60503;43.540;-5.510;2022-09-03T12:50:45;4.82;;;1.70;;
72479;SDS011;60503;43.540;-5.510;2022-09-03T12:53:22;3.65;;;1.20;;
72479;SDS011;60503;43.540;-5.510;2022-09-03T12:55:52;9.27;;;1.33;;
72479;SDS011;60503;43.540;-5.510;2022-09-03T12:58:25;3.38;;;1.27;;
72479;SDS011;60503;43.540;-5.510;2022-09-03T13:01:07;3.58;;;1.10;;
72479;SDS011;60503;43.540;-5.510;2022-09-03T13:03:40;5.47;;;1.60;;
72479;SDS011;60503;43.540;-5.510;2022-09-03T13:06:09;4.28;;;1.05;;
72479;SDS011;60503;43.540;-5.510;2022-09-03T13:08:43;4.43;;;1.20;;
72479;SDS011;60503;43.540;-5.510;2022-09-03T13:11:14;7.90;;;1.17;;
72479;SDS011;60503;43.540;-5.510;2022-09-03T13:13:47;5.25;;;1.30;;
72479;SDS011;60503;43.540;-5.510;2022-09-03T13:19:16;5.53;;;1.10;;
72479;SDS011;60503;43.540;-5.510;2022-09-03T13:27:31;3.83;;;1.40;;
72479;SDS011;60503;43.540;-5.510;2022-09-03T13:30:14;2.63;;;0.93;;
72479;SDS011;60503;43.540;-5.510;2022-09-03T13:32:43;4.40;;;1.15;;
72479;SDS011;60503;43.540;-5.510;2022-09-03T13:41:28;3.38;;;1.23;;
72479;SDS011;60503;43.540;-5.510;2022-09-03T13:44:19;4.35;;;1.20;;
72479;SDS011;60503;43.540;-5.510;2022-09-03T13:46:56;6.38;;;1.38;;
72479;SDS011;60503;43.540;-5.510;2022-09-03T13:49:38;7.13;;;1.38;;
72479;SDS011;60503;43.540;-5.510;2022-09-03T13:55:30;2.88;;;1.00;;
72479;SDS011;60503;43.540;-5.510;2022-09-03T13:57:56;3.90;;;1.02;;
72479;SDS011;60503;43.540;-5.510;2022-09-03T14:00:33;6.70;;;1.42;;
72479;SDS011;60503;43.540;-5.510;2022-09-03T14:16:23;5.28;;;1.20;;
72479;SDS011;60503;43.540;-5.510;2022-09-03T14:19:01;3.72;;;1.33;;
72479;SDS011;60503;43.540;-5.510;2022-09-03T14:24:18;5.82;;;1.27;;
72479;SDS011;60503;43.540;-5.510;2022-09-03T14:26:50;3.58;;;1.30;;
72479;SDS011;60503;43.540;-5.510;2022-09-03T14:29:20;2.60;;;1.00;;
72479;SDS011;60503;43.540;-5.510;2022-09-03T14:39:55;2.83;;;1.10;;
72479;SDS011;60503;43.540;-5.510;2022-09-03T14:45:55;2.90;;;1.17;;
72479;SDS011;60503;43.540;-5.510;2022-09-03T14:51:16;3.75;;;1.38;;
72479;SDS011;60503;43.540;-5.510;2022-09-03T15:01:45;5.60;;;1.40;;
72479;SDS011;60503;43.540;-5.510;2022-09-03T15:07:11;7.00;;;1.65;;
72479;SDS011;60503;43.540;-5.510;2022-09-03T15:12:29;13.35;;;3.38;;
72479;SDS011;60503;43.540;-5.510;2022-09-03T15:15:00;4.43;;;1.15;;
72479;SDS011;60503;43.540;-5.510;2022-09-03T15:31:26;3.97;;;1.10;;
72479;SDS011;60503;43.540;-5.510;2022-09-03T15:36:26;4.53;;;1.52;;
72479;SDS011;60503;43.540;-5.510;2022-09-03T15:39:01;3.47;;;1.10;;
72479;SDS011;60503;43.540;-5.510;2022-09-03T15:41:34;3.72;;;1.10;;
72479;SDS011;60503;43.540;-5.510;2022-09-03T15:44:20;7.13;;;1.20;;
72479;SDS011;60503;43.540;-5.510;2022-09-03T15:46:53;5.18;;;1.25;;
72479;SDS011;60503;43.540;-5.510;2022-09-03T15:49:24;2.13;;;1.00;;
72479;SDS011;60503;43.540;-5.510;2022-09-03T15:54:48;3.88;;;1.02;;
72479;SDS011;60503;43.540;-5.510;2022-09-03T16:00:03;3.63;;;1.20;;
72479;SDS011;60503;43.540;-5.510;2022-09-03T16:02:33;4.38;;;1.20;;
72479;SDS011;60503;43.540;-5.510;2022-09-03T16:10:30;6.82;;;1.15;;
72479;SDS011;60503;43.540;-5.510;2022-09-03T16:24:52;4.68;;;1.20;;
72479;SDS011;60503;43.540;-5.510;2022-09-03T16:27:33;3.08;;;1.35;;
72479;SDS011;60503;43.540;-5.510;2022-09-03T16:40:36;6.05;;;1.27;;
72479;SDS011;60503;43.540;-5.510;2022-09-03T16:46:41;5.00;;;1.02;;
72479;SDS011;60503;43.540;-5.510;2022-09-03T16:49:26;2.80;;;1.10;;
72479;SDS011;60503;43.540;-5.510;2022-09-03T16:57:32;4.70;;;1.08;;
72479;SDS011;60503;43.540;-5.510;2022-09-03T17:00:22;6.53;;;1.35;;
72479;SDS011;60503;43.540;-5.510;2022-09-03T17:08:33;5.03;;;1.45;;
72479;SDS011;60503;43.540;-5.510;2022-09-03T17:11:36;8.32;;;1.88;;
72479;SDS011;60503;43.540;-5.510;2022-09-03T17:17:03;4.18;;;1.27;;
72479;SDS011;60503;43.540;-5.510;2022-09-03T17:25:22;5.63;;;1.20;;
72479;SDS011;60503;43.540;-5.510;2022-09-03T17:33:42;9.05;;;1.20;;
72479;SDS011;60503;43.540;-5.510;2022-09-03T17:36:39;6.22;;;1.30;;
72479;SDS011;60503;43.540;-5.510;2022-09-03T17:39:26;6.07;;;1.08;;
72479;SDS011;60503;43.540;-5.510;2022-09-03T17:42:04;6.85;;;1.42;;
72479;SDS011;60503;43.540;-5.510;2022-09-03T17:50:17;4.72;;;1.10;;
72479;SDS011;60503;43.540;-5.510;2022-09-03T17:53:02;5.57;;;1.35;;
72479;SDS011;60503;43.540;-5.510;2022-09-03T17:55:36;3.15;;;1.10;;
72479;SDS011;60503;43.540;-5.510;2022-09-03T18:03:43;3.80;;;1.00;;
72479;SDS011;60503;43.540;-5.510;2022-09-03T18:11:49;4.80;;;1.35;;
72479;SDS011;60503;43.540;-5.510;2022-09-03T18:14:28;5.90;;;1.63;;
72479;SDS011;60503;43.540;-5.510;2022-09-03T18:20:04;8.15;;;1.98;;
72479;SDS011;60503;43.540;-5.510;2022-09-03T18:25:53;6.35;;;1.48;;
72479;SDS011;60503;43.540;-5.510;2022-09-03T18:29:00;5.70;;;1.73;;
72479;SDS011;60503;43.540;-5.510;2022-09-03T18:31:46;3.05;;;1.30;;
72479;SDS011;60503;43.540;-5.510;2022-09-03T18:34:31;5.63;;;1.50;;
72479;SDS011;60503;43.540;-5.510;2022-09-03T18:37:18;4.82;;;1.40;;
72479;SDS011;60503;43.540;-5.510;2022-09-03T18:40:04;6.43;;;1.67;;
72479;SDS011;60503;43.540;-5.510;2022-09-03T19:01:25;7.07;;;1.70;;
72479;SDS011;60503;43.540;-5.510;2022-09-03T19:04:16;3.25;;;1.60;;
72479;SDS011;60503;43.540;-5.510;2022-09-03T19:07:08;6.70;;;1.80;;
72479;SDS011;60503;43.540;-5.510;2022-09-03T19:10:09;4.97;;;1.20;;
72479;SDS011;60503;43.540;-5.510;2022-09-03T19:13:41;5.50;;;1.58;;
72479;SDS011;60503;43.540;-5.510;2022-09-03T19:16:25;5.60;;;1.27;;
72479;SDS011;60503;43.540;-5.510;2022-09-03T19:22:38;4.72;;;1.52;;
72479;SDS011;60503;43.540;-5.510;2022-09-03T19:25:24;5.97;;;1.50;;
72479;SDS011;60503;43.540;-5.510;2022-09-03T19:28:17;2.65;;;1.52;;
72479;SDS011;60503;43.540;-5.510;2022-09-03T19:31:06;11.48;;;1.95;;
72479;SDS011;60503;43.540;-5.510;2022-09-03T19:37:05;6.35;;;1.70;;
72479;SDS011;60503;43.540;-5.510;2022-09-03T19:40:05;3.83;;;1.52;;
72479;SDS011;60503;43.540;-5.510;2022-09-03T19:49:28;5.95;;;1.45;;
72479;SDS011;60503;43.540;-5.510;2022-09-03T19:53:19;5.00;;;1.40;;
72479;SDS011;60503;43.540;-5.510;2022-09-03T19:55:41;6.75;;;1.48;;
72479;SDS011;60503;43.540;-5.510;2022-09-03T19:58:29;5.30;;;1.58;;
72479;SDS011;60503;43.540;-5.510;2022-09-03T20:01:15;6.35;;;1.70;;
72479;SDS011;60503;43.540;-5.510;2022-09-03T20:04:03;5.50;;;1.38;;
72479;SDS011;60503;43.540;-5.510;2022-09-03T20:06:53;4.40;;;1.42;;
72479;SDS011;60503;43.540;-5.510;2022-09-03T20:09:38;3.33;;;1.60;;
72479;SDS011;60503;43.540;-5.510;2022-09-03T20:12:25;5.35;;;1.48;;
72479;SDS011;60503;43.540;-5.510;2022-09-03T20:14:53;4.75;;;1.40;;
72479;SDS011;60503;43.540;-5.510;2022-09-03T20:17:41;5.88;;;1.50;;
72479;SDS011;60503;43.540;-5.510;2022-09-03T20:22:52;7.25;;;3.03;;
72479;SDS011;60503;43.540;-5.510;2022-09-03T20:26:07;5.10;;;1.30;;
72479;SDS011;60503;43.540;-5.510;2022-09-03T20:31:46;5.63;;;1.40;;
72479;SDS011;60503;43.540;-5.510;2022-09-03T20:37:17;2.95;;;1.25;;
72479;SDS011;60503;43.540;-5.510;2022-09-03T20:51:19;6.25;;;1.48;;
72479;SDS011;60503;43.540;-5.510;2022-09-03T20:54:06;3.88;;;1.50;;
72479;SDS011;60503;43.540;-5.510;2022-09-03T20:56:55;5.93;;;1.45;;
72479;SDS011;60503;43.540;-5.510;2022-09-03T21:01:56;3.70;;;1.40;;
72479;SDS011;60503;43.540;-5.510;2022-09-03T21:18:37;3.58;;;1.52;;
72479;SDS011;60503;43.540;-5.510;2022-09-03T21:23:41;5.40;;;1.42;;
72479;SDS011;60503;43.540;-5.510;2022-09-03T21:26:24;3.90;;;1.23;;
72479;SDS011;60503;43.540;-5.510;2022-09-03T21:29:02;4.47;;;1.83;;
72479;SDS011;60503;43.540;-5.510;2022-09-03T21:31:35;6.63;;;1.50;;
72479;SDS011;60503;43.540;-5.510;2022-09-03T21:34:17;6.57;;;1.70;;
72479;SDS011;60503;43.540;-5.510;2022-09-03T21:36:49;6.45;;;1.60;;
72479;SDS011;60503;43.540;-5.510;2022-09-03T21:39:20;4.97;;;1.83;;
72479;SDS011;60503;43.540;-5.510;2022-09-03T21:42:28;6.78;;;2.00;;
72479;SDS011;60503;43.540;-5.510;2022-09-03T21:51:00;5.63;;;1.90;;
72479;SDS011;60503;43.540;-5.510;2022-09-03T21:53:43;4.97;;;1.50;;
72479;SDS011;60503;43.540;-5.510;2022-09-03T21:59:04;5.45;;;1.58;;
72479;SDS011;60503;43.540;-5.510;2022-09-03T22:02:10;6.43;;;1.80;;
72479;SDS011;60503;43.540;-5.510;2022-09-03T22:04:44;4.85;;;1.98;;
72479;SDS011;60503;43.540;-5.510;2022-09-03T22:07:12;6.50;;;2.13;;
72479;SDS011;60503;43.540;-5.510;2022-09-03T22:15:03;6.60;;;1.92;;
72479;SDS011;60503;43.540;-5.510;2022-09-03T22:20:47;12.30;;;2.15;;